• Join FlightAware (Why Join?)
  • Login
  • US Flag 
09:33PM EDT


 

Airport Tracker/Info


-or-


 

Live Flight TrackerFlight Track Log ✈ SWA824 ✈ 03-May-2013 ✈ KTPA - KMDW

Flight Track Log - Related Links

Times and Time Zones

All times are in EDT time to prevent confusion due to time zone crossing. See the SWA824 flight status page for this flight to view local times or setup timezone preferences in your user account.

Time Position Orientation Groundspeed Altitude Reporting Facility
EDT Latitude Longitude Course Direction KTS MPH feet Rate Location/Type
09:33PM 27.9833 -82.5333 360° North 150 173 500  Level Tampa TRACON
09:33PM 28.0333 -82.5333 360° North 170 196 2,100 2,520 Climbing Tampa TRACON
09:35PM 28.1475 -82.5725 343° North 257 296 7,800 2,940 Climbing Jacksonville Center
09:36PM 28.2247 -82.5981 344° North 269 310 11,200 3,180 Climbing Jacksonville Center
09:37PM 28.3125 -82.6286 343° North 297 342 14,200 3,300 Climbing Jacksonville Center
09:38PM 28.4042 -82.6542 346° North 322 371 17,900 3,060 Climbing Jacksonville Center
09:39PM 28.4983 -82.6872 343° North 339 390 20,400 2,400 Climbing Jacksonville Center
09:40PM 28.6006 -82.7200 344° North 359 413 22,700 2,280 Climbing Jacksonville Center
09:41PM 28.7069 -82.7531 345° North 378 435 25,000 2,100 Climbing Jacksonville Center
09:42PM 28.8156 -82.7906 343° North 397 457 27,000 1,980 Climbing Jacksonville Center
09:43PM 28.9261 -82.8333 341° North 402 463 29,000 1,980 Climbing Jacksonville Center
09:44PM 29.0369 -82.8806 340° North 412 474 31,000 1,920 Climbing Jacksonville Center
09:45PM 29.1475 -82.9258 340° North 417 480 32,900 1,800 Climbing Jacksonville Center
09:46PM 29.2561 -82.9736 339° North 417 480 34,600 1,500 Climbing Jacksonville Center
09:47PM 29.3686 -83.0211 340° North 417 480 36,000 600 Climbing Jacksonville Center
09:48PM 29.4919 -83.0764 339° North 417 480 35,900  Descending Jacksonville Center
09:49PM 29.6025 -83.1242 339° North 429 494 36,000  Climbing Jacksonville Center
09:50PM 29.7150 -83.1725 340° North 422 486 36,000  Level Jacksonville Center
09:51PM 29.8256 -83.2181 340° North 429 494 36,000  Level Jacksonville Center
09:52PM 29.9361 -83.2642 340° North 429 494 36,000 -60 Level Jacksonville Center
09:53PM 30.0508 -83.3006 345° North 429 494 35,900  Descending Jacksonville Center
09:54PM 30.1675 -83.3347 346° North 429 494 36,000  Climbing Jacksonville Center
09:55PM 30.2844 -83.3714 345° North 424 488 36,000  Level Jacksonville Center
09:56PM 30.4011 -83.4056 346° North 430 495 36,000  Level Jacksonville Center
09:57PM 30.5158 -83.4400 345° North 430 495 36,000  Level Jacksonville Center
09:58PM 30.6328 -83.4769 345° North 430 495 36,000  Level Jacksonville Center
09:59PM 30.7536 -83.5139 345° North 435 501 36,000  Level Jacksonville Center
10:00PM 30.8578 -83.5483 344° North 435 501 36,000  Level Jacksonville Center
10:01PM 30.9725 -83.5856 344° North 435 501 36,000  Level Jacksonville Center
10:03PM 31.1867 -83.6531 345° North 439 505 36,000  Level Atlanta Center
10:04PM 31.3058 -83.6889 346° North 439 505 36,000  Level Atlanta Center
10:05PM 31.4247 -83.7272 345° North 439 505 36,000  Level Atlanta Center
10:06PM 31.5439 -83.7658 345° North 439 505 36,000  Level Atlanta Center
10:07PM 31.6525 -83.7950 347° North 439 505 36,000  Level Atlanta Center
10:08PM 31.7797 -83.8386 344° North 444 511 36,000  Level Atlanta Center
10:09PM 31.9008 -83.8775 345° North 451 519 36,000  Level Atlanta Center
10:10PM 32.0219 -83.9164 345° North 451 519 36,000  Level Atlanta Center
10:11PM 32.1453 -83.9556 345° North 451 519 36,000  Level Atlanta Center
10:12PM 32.2664 -83.9947 345° North 451 519 36,000  Level Atlanta Center
10:13PM 32.3894 -84.0339 345° North 451 519 36,000  Level Atlanta Center
10:14PM 32.5106 -84.0708 346° North 451 519 36,000  Level Atlanta Center
10:15PM 32.6358 -84.1128 344° North 456 525 36,000  Level Atlanta Center
10:16PM 32.7611 -84.1525 345° North 456 525 36,000  Level Atlanta Center
10:17PM 32.8842 -84.1922 345° North 456 525 36,000  Level Atlanta Center
10:18PM 33.0197 -84.2394 344° North 456 525 36,000  Level Atlanta Center
10:19PM 33.1428 -84.2794 345° North 456 525 36,000  Level Atlanta Center
10:20PM 33.2658 -84.3169 346° North 456 525 36,000  Level Atlanta Center
10:21PM 33.3911 -84.3597 344° North 456 525 36,000  Level Atlanta Center
10:22PM 33.5142 -84.4000 345° North 456 525 36,000  Level Atlanta Center
10:23PM 33.6350 -84.4406 344° North 456 525 36,000  Level Atlanta Center
10:24PM 33.7622 -84.4711 349° North 451 519 36,000  Level Atlanta Center
10:25PM 33.8872 -84.4992 349° North 457 526 36,000  Level Atlanta Center
10:26PM 34.0167 -84.5300 349° North 457 526 36,000  Level Atlanta Center
10:27PM 34.1481 -84.5633 348° North 464 534 36,000  Level Atlanta Center
10:28PM 34.2753 -84.5919 349° North 474 545 36,000  Level Atlanta Center
10:29PM 34.4022 -84.6253 348° North 468 539 36,000  Level Atlanta Center
10:30PM 34.5275 -84.6564 348° North 462 532 36,000  Level Atlanta Center
10:31PM 34.6419 -84.6850 348° North 467 537 36,000  Level Atlanta Center
10:32PM 34.7775 -84.7192 348° North 461 531 36,000  Level Atlanta Center
10:33PM 34.9047 -84.7506 349° North 461 531 36,000  Level Atlanta Center
10:34PM 35.0317 -84.7819 349° North 461 531 36,000  Level Atlanta Center
10:35PM 35.1608 -84.8136 349° North 466 536 36,000  Level Atlanta Center
10:36PM 35.2900 -84.8453 349° North 471 542 36,000  Level Atlanta Center
10:37PM 35.4172 -84.8772 348° North 471 542 36,000  Level Atlanta Center
10:38PM 35.5461 -84.9092 349° North 471 542 36,000  Level Atlanta Center
10:39PM 35.6733 -84.9436 348° North 471 542 36,000  Level Atlanta Center
10:42PM 35.9697 -85.0172 349° North 475 547 36,000  Level Indianapolis Center
10:43PM 36.0989 -85.0506 348° North 470 541 36,000  Level Indianapolis Center
10:44PM 36.2283 -85.0836 348° North 472 543 36,000  Level Indianapolis Center
10:45PM 36.3728 -85.1200 349° North 473 544 36,000  Level Indianapolis Center
10:46PM 36.4869 -85.1494 348° North 475 547 36,000  Level Indianapolis Center
10:47PM 36.6419 -85.1897 348° North 474 545 36,000  Level Indianapolis Center
10:48PM 36.7717 -85.2233 348° North 475 547 36,000  Level Indianapolis Center
10:49PM 36.9028 -85.2564 349° North 478 550 36,000  Level Indianapolis Center
10:50PM 37.0347 -85.2928 348° North 477 549 36,000  Level Indianapolis Center
10:51PM 37.1658 -85.3269 348° North 478 550 36,000  Level Indianapolis Center
10:52PM 37.2958 -85.3611 348° North 476 548 36,000  Level Indianapolis Center
10:53PM 37.4264 -85.3958 348° North 477 549 36,000  Level Indianapolis Center
10:54PM 37.5564 -85.4308 348° North 475 547 36,000  Level Indianapolis Center
10:55PM 37.6853 -85.4661 348° North 472 543 36,000  Level Indianapolis Center
10:56PM 37.8153 -85.5017 348° North 475 547 36,000  Level Indianapolis Center
10:57PM 37.9450 -85.5347 349° North 480 552 36,000  Level Indianapolis Center
10:58PM 38.0742 -85.5692 348° North 475 547 36,000  Level Indianapolis Center
10:59PM 38.2044 -85.5969 350° North 474 545 36,000  Level Indianapolis Center
11:00PM 38.3344 -85.6206 352° North 470 541 36,000  Level Indianapolis Center
11:01PM 38.4647 -85.6464 351° North 473 544 36,000  Level Indianapolis Center
11:02PM 38.6222 -85.6772 351° North 476 548 36,000  Level Indianapolis Center
11:03PM 38.7364 -85.6997 351° North 475 547 36,000  Level Indianapolis Center
11:04PM 38.8672 -85.7256 351° North 476 548 36,000  Level Indianapolis Center
11:05PM 38.9975 -85.7517 351° North 477 549 36,000  Level Indianapolis Center
11:06PM 39.1539 -85.7817 352° North 475 547 36,000  Level Indianapolis Center
11:07PM 39.2847 -85.8069 351° North 477 549 36,000  Level Indianapolis Center
11:08PM 39.4147 -85.8339 351° North 476 548 36,000  Level Indianapolis Center
11:09PM 39.5442 -85.8594 351° North 474 545 36,000  Level Indianapolis Center
11:10PM 39.6728 -85.8839 352° North 474 545 36,000  Level Indianapolis Center
11:11PM 39.8017 -85.9100 351° North 475 547 36,000  Level Indianapolis Center
11:12PM 39.9292 -85.9358 351° North 472 543 36,000  Level Indianapolis Center
11:13PM 40.0681 -86.0211 335° Northwest 470 541 36,000  Level Indianapolis Center
11:14PM 40.1783 -86.1056 330° Northwest 467 537 36,000  Level Chicago Center
11:15PM 40.2900 -86.1919 329° Northwest 469 540 36,000 -360 Level Chicago Center
11:16PM 40.4011 -86.2778 330° Northwest 467 537 35,300 -840 Descending Chicago Center
11:17PM 40.5114 -86.3622 330° Northwest 461 531 34,300 -1,020 Descending Chicago Center
11:18PM 40.6194 -86.4483 329° Northwest 457 526 33,300 -1,920 Descending Chicago Center
11:20PM 40.8344 -86.6158 329° Northwest 449 517 28,500 -2,700 Descending Indianapolis Center
11:21PM 40.9411 -86.6989 330° Northwest 447 514 25,100 -3,300 Descending Indianapolis Center
11:22PM 41.0456 -86.7850 328° Northwest 446 513 21,800 -3,480 Descending Indianapolis Center
11:23PM 41.1683 -86.8783 330° Northwest 429 494 18,100 -2,940 Descending Indianapolis Center
11:24PM 41.2628 -86.9533 329° Northwest 417 480 15,800 -2,640 Descending Chicago Center
11:25PM 41.3536 -87.0286 328° Northwest 394 453 12,700 -2,700 Descending Chicago Center
11:26PM 41.4200 -87.1292 311° West 372 428 10,400 -1,740 Descending Chicago Center
11:27PM 41.4333 -87.1833 288° West 322 371 10,300 -300 Descending Chicago TRACON